createdAt,value
2023-09-27T00:02:17.630Z,98526.08
2023-09-27T00:04:44.963Z,98529.02
2023-09-27T00:07:13.599Z,98532.86
2023-09-27T00:09:41.457Z,98529.20
2023-09-27T00:12:08.745Z,98531.05
2023-09-27T00:14:37.517Z,98531.63
2023-09-27T00:17:05.216Z,98530.42
2023-09-27T00:19:32.448Z,98529.77
2023-09-27T00:21:59.947Z,98534.89
2023-09-27T00:24:27.120Z,98534.20
2023-09-27T00:26:54.317Z,98532.43
2023-09-27T00:29:22.569Z,98532.67
2023-09-27T00:31:50.632Z,98534.33
2023-09-27T00:34:17.967Z,98534.79
2023-09-27T00:36:45.684Z,98533.64
2023-09-27T00:39:12.953Z,98530.84
2023-09-27T00:41:40.146Z,98530.73
2023-09-27T00:44:07.733Z,98529.58
2023-09-27T00:46:35.121Z,98526.13
2023-09-27T00:49:02.423Z,98527.38
2023-09-27T00:51:30.236Z,98523.50
2023-09-27T00:53:58.254Z,98526.16
2023-09-27T00:56:27.081Z,98526.07
2023-09-27T00:58:57.083Z,98529.12
2023-09-27T01:04:26.385Z,98525.43
2023-09-27T01:06:54.170Z,98528.65
2023-09-27T01:09:21.319Z,98528.02
2023-09-27T01:11:48.788Z,98528.19
2023-09-27T01:14:16.176Z,98529.45
2023-09-27T01:16:43.627Z,98532.95
2023-09-27T01:19:11.073Z,98532.35
2023-09-27T01:21:38.386Z,98531.94
2023-09-27T01:24:08.018Z,98528.55
2023-09-27T01:26:38.278Z,98529.11
2023-09-27T01:29:05.943Z,98528.23
2023-09-27T01:31:33.808Z,98527.21
2023-09-27T01:34:01.143Z,98529.80
2023-09-27T01:36:28.368Z,98530.83
2023-09-27T01:38:55.579Z,98533.45
2023-09-27T01:41:22.815Z,98530.14
2023-09-27T01:43:50.070Z,98532.84
2023-09-27T01:46:17.532Z,98531.31
2023-09-27T01:48:45.029Z,98530.05
2023-09-27T01:51:15.202Z,98536.46
2023-09-27T01:53:42.428Z,98537.61
2023-09-27T01:56:09.723Z,98541.95
2023-09-27T01:58:37.060Z,98542.27
2023-09-27T02:01:05.177Z,98543.75
2023-09-27T02:03:33.044Z,98539.07
2023-09-27T02:06:00.592Z,98540.35
2023-09-27T02:08:27.848Z,98545.34
2023-09-27T02:10:55.095Z,98540.63
2023-09-27T02:13:22.283Z,98540.29
2023-09-27T02:15:49.768Z,98543.67
2023-09-27T02:18:17.636Z,98540.35
2023-09-27T02:20:45.180Z,98534.98
2023-09-27T02:23:12.376Z,98532.83
2023-09-27T02:25:41.018Z,98534.47
2023-09-27T02:28:08.188Z,98537.33
2023-09-27T02:30:35.526Z,98535.57
2023-09-27T02:33:03.597Z,98539.46
2023-09-27T02:35:31.055Z,98535.58
2023-09-27T02:37:58.280Z,98536.57
2023-09-27T02:40:26.178Z,98538.84
2023-09-27T02:42:53.341Z,98534.04
2023-09-27T02:45:20.786Z,98535.51
2023-09-27T02:47:48.861Z,98533.02
2023-09-27T02:50:16.938Z,98530.48
2023-09-27T02:52:45.438Z,98532.45
2023-09-27T02:55:13.780Z,98528.05
2023-09-27T02:57:41.324Z,98525.64
2023-09-27T03:00:10.340Z,98526.19
2023-09-27T03:02:39.013Z,98527.16
2023-09-27T03:05:09.407Z,98527.27
2023-09-27T03:07:37.141Z,98524.52
2023-09-27T03:10:06.187Z,98528.59
2023-09-27T03:12:34.093Z,98524.44
2023-09-27T03:15:01.338Z,98526.16
2023-09-27T03:17:29.031Z,98526.11
2023-09-27T03:19:56.330Z,98526.64
2023-09-27T03:22:24.018Z,98530.72
2023-09-27T03:24:52.586Z,98531.36
2023-09-27T03:27:20.297Z,98529.52
2023-09-27T03:29:48.163Z,98530.68
2023-09-27T03:32:15.809Z,98535.56
2023-09-27T03:34:43.043Z,98535.70
2023-09-27T03:37:10.179Z,98533.04
2023-09-27T03:39:37.848Z,98531.64
2023-09-27T03:42:05.304Z,98533.37
2023-09-27T03:44:32.943Z,98537.00
2023-09-27T03:47:00.522Z,98535.53
2023-09-27T03:49:27.756Z,98533.38
2023-09-27T03:51:55.240Z,98535.17
2023-09-27T03:54:23.675Z,98535.25
2023-09-27T03:56:50.878Z,98534.59
2023-09-27T03:59:18.229Z,98536.88
2023-09-27T04:01:47.552Z,98540.38
2023-09-27T04:04:14.864Z,98540.55
2023-09-27T04:06:42.286Z,98544.86
2023-09-27T04:09:11.258Z,98548.48
2023-09-27T04:11:39.114Z,98550.60
2023-09-27T04:14:07.415Z,98549.88
2023-09-27T04:16:34.857Z,98550.82
2023-09-27T04:19:02.218Z,98549.72
2023-09-27T04:21:30.738Z,98547.75
2023-09-27T04:23:59.100Z,98551.60
2023-09-27T04:26:26.930Z,98553.88
2023-09-27T04:28:55.044Z,98557.05
2023-09-27T04:31:22.586Z,98550.38
2023-09-27T04:33:50.120Z,98550.81
2023-09-27T04:36:18.683Z,98550.41
2023-09-27T04:38:47.128Z,98553.49
2023-09-27T04:41:19.632Z,98551.95
2023-09-27T04:43:46.884Z,98548.43
2023-09-27T04:46:18.362Z,98549.83
2023-09-27T04:49:58.209Z,98549.06
2023-09-27T04:53:51.125Z,98553.69
2023-09-27T04:58:01.183Z,98550.14
2023-09-27T05:01:48.732Z,98551.67
2023-09-27T05:05:39.622Z,98555.20
2023-09-27T05:09:27.624Z,98560.28
2023-09-27T05:13:37.859Z,98559.36
2023-09-27T05:17:27.741Z,98565.02
2023-09-27T05:21:18.077Z,98562.77
2023-09-27T05:25:08.991Z,98563.92
2023-09-27T05:29:02.617Z,98564.15
2023-09-27T05:32:51.057Z,98567.17
2023-09-27T05:36:41.753Z,98566.38
2023-09-27T05:40:38.340Z,98566.66
2023-09-27T05:44:38.331Z,98566.89
2023-09-27T05:52:29.159Z,98574.34
2023-09-27T05:56:17.332Z,98575.91
2023-09-27T06:00:07.760Z,98576.15
2023-09-27T06:03:58.715Z,98577.69
2023-09-27T06:07:53.703Z,98578.62
2023-09-27T06:11:58.649Z,98585.92
2023-09-27T06:15:58.494Z,98585.73
2023-09-27T06:19:52.108Z,98589.52
2023-09-27T06:31:31.560Z,98591.23
2023-09-27T06:35:20.660Z,98590.92
2023-09-27T06:39:16.668Z,98596.08
2023-09-27T06:43:21.094Z,98599.27
2023-09-27T06:47:16.896Z,98599.69
2023-09-27T06:51:07.181Z,98601.91
2023-09-27T06:54:57.942Z,98599.54
2023-09-27T06:58:49.779Z,98601.35
2023-09-27T07:02:43.421Z,98598.52
2023-09-27T07:06:33.719Z,98600.60
2023-09-27T07:10:21.808Z,98599.35
2023-09-27T07:14:16.237Z,98605.98
2023-09-27T07:18:05.844Z,98607.77
2023-09-27T07:21:39.339Z,98602.77
2023-09-27T07:25:27.022Z,98606.63
2023-09-27T07:29:17.207Z,98614.33
2023-09-27T07:33:11.331Z,98612.84
2023-09-27T07:37:09.296Z,98618.23
2023-09-27T07:44:42.902Z,98622.64
2023-09-27T07:47:10.277Z,98626.96
2023-09-27T07:49:37.949Z,98623.45
2023-09-27T07:52:06.157Z,98625.21
2023-09-27T07:54:34.913Z,98625.12
2023-09-27T07:57:02.731Z,98624.14
2023-09-27T07:59:30.134Z,98623.55
2023-09-27T08:01:57.506Z,98625.65
2023-09-27T08:04:25.622Z,98629.97
2023-09-27T08:06:53.126Z,98632.57
2023-09-27T08:09:38.882Z,98633.97
2023-09-27T08:12:08.677Z,98635.86
2023-09-27T08:14:38.992Z,98638.56
2023-09-27T08:17:06.480Z,98635.95
2023-09-27T08:19:34.214Z,98632.41
2023-09-27T08:22:01.471Z,98634.13
2023-09-27T08:24:28.693Z,98634.27
2023-09-27T08:26:56.285Z,98636.15
2023-09-27T08:29:23.908Z,98640.35
2023-09-27T08:31:51.720Z,98638.58
2023-09-27T08:34:19.862Z,98639.76
2023-09-27T08:36:48.281Z,98642.39
2023-09-27T08:39:16.451Z,98635.16
2023-09-27T08:41:44.492Z,98637.67
2023-09-27T08:44:15.716Z,98637.05
2023-09-27T08:46:43.211Z,98635.02
2023-09-27T08:49:14.598Z,98635.05
2023-09-27T08:51:43.834Z,98637.03
2023-09-27T08:54:11.176Z,98641.98
2023-09-27T08:56:38.853Z,98641.58
2023-09-27T08:59:07.304Z,98638.38
2023-09-27T09:01:35.193Z,98636.19
2023-09-27T09:04:04.241Z,98637.17
2023-09-27T09:06:32.488Z,98636.15
2023-09-27T09:09:15.699Z,98640.63
2023-09-27T09:11:50.610Z,98640.89
2023-09-27T09:14:18.868Z,98643.78
2023-09-27T09:16:54.600Z,98638.61
2023-09-27T09:19:41.566Z,98635.89
2023-09-27T09:22:16.019Z,98634.20
2023-09-27T09:24:45.340Z,98628.73
2023-09-27T09:27:17.368Z,98630.89
2023-09-27T09:29:46.624Z,98633.21
2023-09-27T09:32:17.332Z,98635.80
2023-09-27T09:34:55.588Z,98634.57
2023-09-27T09:37:31.351Z,98635.08
2023-09-27T09:40:16.656Z,98633.11
2023-09-27T09:42:44.739Z,98630.66
2023-09-27T09:45:13.993Z,98635.29
2023-09-27T09:47:46.346Z,98635.16
2023-09-27T09:50:18.603Z,98635.31
2023-09-27T09:53:01.188Z,98639.69
2023-09-27T09:56:01.235Z,98640.73
2023-09-27T09:58:49.414Z,98640.52
2023-09-27T10:01:23.469Z,98636.64
2023-09-27T10:03:53.269Z,98639.98
2023-09-27T10:06:29.724Z,98644.07
2023-09-27T10:09:07.135Z,98640.30
2023-09-27T10:18:24.811Z,98637.13
2023-09-27T10:21:14.651Z,98637.91
2023-09-27T10:23:48.203Z,98641.32
2023-09-27T10:26:20.270Z,98634.24
2023-09-27T10:29:05.840Z,98630.13
2023-09-27T10:31:40.609Z,98626.75
2023-09-27T10:34:36.478Z,98627.14
2023-09-27T10:37:18.103Z,98628.45
2023-09-27T10:40:24.542Z,98622.65
2023-09-27T10:42:51.929Z,98619.37
2023-09-27T10:45:19.278Z,98617.70
2023-09-27T10:47:51.564Z,98616.77
2023-09-27T10:50:30.008Z,98616.50
2023-09-27T10:52:58.893Z,98620.12
2023-09-27T10:55:26.311Z,98617.64
2023-09-27T10:57:53.821Z,98613.71
2023-09-27T11:00:23.243Z,98614.86
2023-09-27T11:02:50.804Z,98614.51
2023-09-27T11:05:25.858Z,98615.33
2023-09-27T11:07:53.531Z,98611.68
2023-09-27T11:10:35.215Z,98606.98
2023-09-27T11:13:13.764Z,98603.70
2023-09-27T11:15:42.749Z,98602.84
2023-09-27T11:18:12.042Z,98602.27
2023-09-27T11:20:41.957Z,98597.39
2023-09-27T11:23:09.816Z,98594.92
2023-09-27T11:26:45.410Z,98593.16
2023-09-27T11:30:39.189Z,98596.45
2023-09-27T11:38:27.330Z,98582.29
2023-09-27T11:42:15.087Z,98579.04
2023-09-27T11:46:15.043Z,98577.32
2023-09-27T11:50:28.182Z,98576.40
2023-09-27T11:54:23.010Z,98578.57
2023-09-27T12:06:03.014Z,98556.48
2023-09-27T12:09:58.480Z,98555.05
2023-09-27T12:13:48.980Z,98555.31
2023-09-27T12:17:39.508Z,98558.10
2023-09-27T12:25:29.302Z,98544.52
2023-09-27T12:28:53.116Z,98546.50
2023-09-27T12:32:36.358Z,98538.98
2023-09-27T12:36:29.191Z,98537.90
2023-09-27T12:40:20.264Z,98532.29
2023-09-27T12:44:22.683Z,98528.67
2023-09-27T12:48:21.391Z,98524.40
2023-09-27T12:52:07.805Z,98516.02
2023-09-27T13:00:03.482Z,98508.08
2023-09-27T13:05:46.445Z,98501.89
2023-09-27T13:09:35.946Z,98496.58
2023-09-27T13:13:26.347Z,98498.69
2023-09-27T13:27:05.115Z,98487.67
2023-09-27T13:30:07.114Z,98485.16
2023-09-27T13:33:29.933Z,98483.27
2023-09-27T13:37:23.842Z,98479.69
2023-09-27T13:41:21.928Z,98470.21
2023-09-27T13:45:15.037Z,98467.48
2023-09-27T13:56:24.062Z,98458.16
2023-09-27T14:14:29.250Z,98445.97
2023-09-27T14:23:59.511Z,98438.61
2023-09-27T14:31:50.790Z,98432.09
2023-09-27T18:09:51.610Z,98386.55
2023-09-27T18:12:20.225Z,98387.50
2023-09-27T18:14:50.210Z,98386.33
2023-09-27T18:17:18.678Z,98385.36
2023-09-27T18:19:47.180Z,98388.97
2023-09-27T18:22:15.240Z,98389.13
2023-09-27T18:24:43.430Z,98388.63
2023-09-27T18:27:12.445Z,98391.61
2023-09-27T18:29:40.937Z,98392.27
2023-09-27T18:32:09.784Z,98391.61
2023-09-27T18:34:39.778Z,98397.16
2023-09-27T18:37:09.110Z,98392.77
2023-09-27T18:39:37.358Z,98392.33
2023-09-27T18:42:05.488Z,98392.85
2023-09-27T18:44:33.899Z,98394.64
2023-09-27T18:47:05.090Z,98393.95
2023-09-27T18:49:34.007Z,98396.88
2023-09-27T18:52:06.694Z,98398.01
2023-09-27T18:54:36.151Z,98390.89
2023-09-27T18:57:07.687Z,98395.29
2023-09-27T18:59:38.809Z,98395.12
2023-09-27T19:02:06.843Z,98399.21
2023-09-27T19:04:35.049Z,98401.90
2023-09-27T19:07:03.276Z,98396.23
2023-09-27T19:09:32.226Z,98393.89
2023-09-27T19:12:00.552Z,98391.04
2023-09-27T19:14:29.120Z,98386.79
2023-09-27T19:16:57.033Z,98385.67
2023-09-27T19:19:25.077Z,98387.91
2023-09-27T19:21:53.646Z,98384.42
2023-09-27T19:24:22.164Z,98385.38
2023-09-27T19:26:50.101Z,98385.08
2023-09-27T19:29:18.623Z,98384.21
2023-09-27T19:31:47.244Z,98383.98
2023-09-27T19:34:16.170Z,98382.05
2023-09-27T19:36:45.322Z,98378.68
2023-09-27T19:39:15.487Z,98380.17
2023-09-27T19:41:45.322Z,98379.09
2023-09-27T19:44:13.868Z,98377.91
2023-09-27T19:46:41.962Z,98376.91
2023-09-27T19:49:13.827Z,98375.59
2023-09-27T19:51:42.379Z,98375.33
2023-09-27T19:54:10.260Z,98374.05
2023-09-27T19:56:44.553Z,98376.83
2023-09-27T19:59:15.725Z,98373.70
2023-09-27T20:01:44.001Z,98373.31
2023-09-27T20:04:11.723Z,98371.63
2023-09-27T20:06:40.749Z,98370.63
2023-09-27T20:09:12.576Z,98368.69
2023-09-27T20:11:40.870Z,98371.13
2023-09-27T20:14:08.316Z,98368.10
2023-09-27T20:16:35.710Z,98367.14
2023-09-27T20:19:07.208Z,98365.40
2023-09-27T20:21:36.732Z,98367.45
2023-09-27T20:24:04.449Z,98364.90
2023-09-27T20:26:32.024Z,98363.80
2023-09-27T20:28:59.523Z,98361.02
2023-09-27T20:31:27.125Z,98359.26
2023-09-27T20:33:54.881Z,98359.20
2023-09-27T20:36:22.433Z,98359.52
2023-09-27T20:38:49.991Z,98362.27
2023-09-27T20:41:21.570Z,98360.16
2023-09-27T20:43:49.472Z,98358.66
2023-09-27T20:46:17.603Z,98362.13
2023-09-27T20:48:45.085Z,98361.54
2023-09-27T20:51:12.788Z,98358.03
2023-09-27T20:53:40.571Z,98356.83
2023-09-27T20:56:09.048Z,98356.70
2023-09-27T20:58:37.515Z,98356.06
2023-09-27T21:01:08.539Z,98356.37
2023-09-27T21:03:36.987Z,98358.85
2023-09-27T21:06:05.888Z,98356.74
2023-09-27T21:08:33.697Z,98356.86
2023-09-27T21:11:00.947Z,98352.39
2023-09-27T21:13:28.226Z,98353.04
2023-09-27T21:16:40.992Z,98345.79
2023-09-27T21:19:08.389Z,98343.45
2023-09-27T21:21:35.619Z,98339.59
2023-09-27T21:24:02.885Z,98338.30
2023-09-27T21:26:30.363Z,98335.63
2023-09-27T21:28:57.561Z,98335.41
2023-09-27T21:31:24.881Z,98337.13
2023-09-27T21:33:52.547Z,98335.77
2023-09-27T21:36:20.034Z,98336.52
2023-09-27T21:38:47.356Z,98335.48
2023-09-27T21:41:14.754Z,98332.54
2023-09-27T21:43:42.063Z,98331.88
2023-09-27T21:46:20.030Z,98334.02
2023-09-27T21:48:49.409Z,98331.29
2023-09-27T21:51:17.497Z,98325.46
2023-09-27T21:53:45.302Z,98326.58
2023-09-27T21:56:14.721Z,98324.48
2023-09-27T21:58:43.036Z,98326.28
2023-09-27T22:01:12.067Z,98325.95
2023-09-27T22:03:40.434Z,98326.02
2023-09-27T22:06:08.983Z,98323.85
2023-09-27T22:08:36.317Z,98320.00
2023-09-27T22:11:04.670Z,98322.48
2023-09-27T22:13:33.161Z,98320.33
2023-09-27T22:16:09.695Z,98323.38
2023-09-27T22:18:43.473Z,98323.42
2023-09-27T22:21:19.916Z,98319.98
2023-09-27T22:23:48.230Z,98319.02
2023-09-27T22:26:18.928Z,98319.09
2023-09-27T22:28:49.417Z,98318.67
2023-09-27T22:31:32.711Z,98316.63
2023-09-27T22:34:12.126Z,98316.30
2023-09-27T22:36:48.166Z,98313.91
2023-09-27T22:39:20.750Z,98310.20
2023-09-27T22:41:54.086Z,98309.13
2023-09-27T22:44:22.683Z,98308.63
2023-09-27T22:46:53.358Z,98309.61
2023-09-27T22:49:22.923Z,98308.11
2023-09-27T22:51:50.679Z,98302.92
2023-09-27T22:54:20.498Z,98304.06
2023-09-27T22:56:49.401Z,98298.17
2023-09-27T22:59:17.220Z,98299.75
2023-09-27T23:01:47.671Z,98298.73
2023-09-27T23:04:17.881Z,98302.45
2023-09-27T23:06:46.735Z,98299.83
2023-09-27T23:09:26.235Z,98298.44
2023-09-27T23:12:13.185Z,98302.34
2023-09-27T23:14:58.919Z,98302.58
2023-09-27T23:17:31.101Z,98305.96
2023-09-27T23:19:58.487Z,98309.45
2023-09-27T23:22:26.793Z,98305.15
2023-09-27T23:25:12.441Z,98310.29
2023-09-27T23:27:39.653Z,98310.40
2023-09-27T23:30:14.310Z,98310.02
2023-09-27T23:32:41.671Z,98308.31
2023-09-27T23:35:11.185Z,98304.83
2023-09-27T23:37:38.528Z,98303.15
2023-09-27T23:40:15.244Z,98301.98
2023-09-27T23:42:48.549Z,98299.20
2023-09-27T23:45:16.196Z,98300.58
2023-09-27T23:47:51.609Z,98297.74
2023-09-27T23:50:19.343Z,98301.27
2023-09-27T23:52:48.787Z,98298.33
2023-09-27T23:55:19.155Z,98299.54
2023-09-27T23:57:49.442Z,98298.23
